MUCMMUHA

Guest
Details From MUCM - IGNACIO AGRAMONTE INTL
To MUHA - Havana Jose Marti Intl
Flight Number -
Tags generated
Created
Modified
Stats Distance 277 nm / 513 km
Max Altitude 26,200 ft / 7,986 m
Waypoints 5
Social Downloads 3
Likes 0
Share VATSIM

Download

Looking for another format? Having issues loading an existing format? Contact us
Advertisement - Login to hide

Notes

Basic altitude profile: - Ascent Rate: 2500ft/min - Ascent Speed: 250kts - Cruise Altitude: 35000ft - Cruise Speed: 420kts - Descent Rate: 1500ft/min - Descent Speed: 250kts Options: - Use NATs: yes - Use PACOTS: yes - Use low airways: yes - Use high airways: yes

Route

MUCM UCM J3 UCF J2 UZG MUHA

ID Type Via Altitude Latitude Longitude Leg Dist Tot Dist Heading (true) Name
O MUCM APT - 0 ft / 0 m 21.42043˚ -77.84744˚ - 0 nm - IGNACIO AGRAMONTE INTL
UCM VOR - 900 ft / 274 m 21.43744˚ -77.80084˚ 2 nm 2 nm 69° / 69° CAMAGUEY VOR-DME
UCF VOR J3 (AWY-LO) 26,200 ft / 7,986 m 22.15468˚ -80.40606˚ 151 nm 154 nm 287° / 286° CIENFUEGOS VOR-DME
UZG NDB J2 (AWY-LO) 4,400 ft / 1,341 m 22.93500˚ -82.03861˚ 101 nm 256 nm 298° / 297° ZARAGO NDB
O MUHA APT - 0 ft / 0 m 22.98915˚ -82.40909˚ 20 nm 277 nm 279° / 279° Havana Jose Marti Intl

Altitude Profile

Advertisement - Login to hide

Weather


0- 5 10 15 20 25 30 35+ Temperature / ° C

Clouds and Precipitation
Forecast for 2017-12-16 06:00 UTC. Updated 35 minutes ago

Ground ~20,000 ft ~40,000 ft Winds

MUCM

Details ICAO MUCM (CMW)
Name IGNACIO AGRAMONTE INTL
Region Cuba
Timezone America/Havana (UTC-5.0)
Stats Elevation 413 ft / 126 m (AMSL)
Location 21.420427° -77.847437°
Runways 1
Magnetic Variation 7.443° W

METAR

MUCM 160050Z 34005KT 300V060 9000 FEW020 23/22 Q1019

Decode

TAF

Not found

Departure Runways

ID Width Length Bearing (true) Bearing (mag) Surface Threshold Offset Overrun Length
07 148 ft / 45 m 9,838 ft / 2,999 m 68.39° 75.83° Asphalt 0 ft / 0 m 195 ft / 59 m
25 148 ft / 45 m 9,838 ft / 2,999 m 248.40° 255.84° Asphalt 0 ft / 0 m 195 ft / 59 m

MUHA

Details ICAO MUHA (HAV)
Name Havana Jose Marti Intl
Region Cuba
Timezone America/Havana (UTC-5.0)
Stats Elevation 209 ft / 64 m (AMSL)
Location 22.989154° -82.409086°
Runways 1
Magnetic Variation 4.909° W

METAR

MUHA 160055Z 08004KT 040V100 9000 NSC 22/19 Q1019

Decode

TAF

Not found

Destination Runways

ID Width Length Bearing (true) Bearing (mag) Surface Threshold Offset Overrun Length
06 148 ft / 45 m 13,133 ft / 4,003 m 54.21° 59.12° Asphalt 0 ft / 0 m 476 ft / 145 m
24 148 ft / 45 m 13,133 ft / 4,003 m 234.23° 239.14° Asphalt 0 ft / 0 m 197 ft / 60 m

Approach Navaids

Runway Type Ident Frequency Range Bearing (true) Bearing (mag) Slope Elevation
06 Localiser IHA 110.50 MHz 18 nm / 33 km 54.23° 59.14° - 209 ft / 64 m (AMSL)
06 Glidescope IHA 110.50 MHz 10 nm / 19 km 54.22° 59.13° 3.00° 209 ft / 64 m (AMSL)

Popular Alternatives